Time;durP1;ratioP1;P1;durP2;ratioP2;P2;SDS_P1;SDS_P2;PMS_P1;PMS_P2;Temp;Humidity;BMP_temperature;BMP_pressure;BME280_temperature;BME280_humidity;BME280_pressure;Samples;Min_cycle;Max_cycle;Signal;HPM_P1;HPM_P2
2023/06/22 00:01:19;;;;;;;10.20;6.80;;;;;;;19.61;88.44;98091.69;106948;1278;22464;-77
2023/06/22 00:03:46;;;;;;;9.10;7.40;;;;;;;19.43;90.06;98095.07;106680;1278;25310;-77
2023/06/22 00:06:13;;;;;;;9.50;7.20;;;;;;;19.27;90.94;98099.28;106674;1278;24204;-77
2023/06/22 00:08:40;;;;;;;13.10;7.70;;;;;;;19.15;90.42;98101.14;107083;1278;22524;-77
2023/06/22 00:11:07;;;;;;;13.10;8.50;;;;;;;19.12;89.97;98096.20;106646;1278;22526;-77
2023/06/22 00:13:33;;;;;;;11.80;8.10;;;;;;;19.17;89.96;98097.52;107059;1278;24287;-78
2023/06/22 00:16:00;;;;;;;12.60;7.50;;;;;;;19.23;91.22;98095.25;107096;1278;22527;-77
2023/06/22 00:18:27;;;;;;;12.90;7.40;;;;;;;19.27;91.26;98095.75;106627;1278;24553;-77
2023/06/22 00:20:58;;;;;;;13.70;7.10;;;;;;;19.24;92.44;98095.37;106636;1278;22649;-78
2023/06/22 00:23:25;;;;;;;11.20;7.90;;;;;;;19.25;91.95;98091.65;106633;1278;22544;-77
2023/06/22 00:25:52;;;;;;;12.10;6.80;;;;;;;19.24;92.22;98093.17;106640;1278;25412;-77
2023/06/22 00:28:19;;;;;;;14.40;6.90;;;;;;;19.31;92.02;98095.30;106970;1266;22764;-77
2023/06/22 00:30:47;;;;;;;14.00;7.20;;;;;;;19.36;91.18;98091.14;106784;1278;22541;-77
2023/06/22 00:33:14;;;;;;;12.20;7.90;;;;;;;19.43;91.46;98088.59;106968;1278;22586;-77
2023/06/22 00:35:41;;;;;;;15.80;7.00;;;;;;;19.48;90.87;98077.77;106959;1278;22652;-77
2023/06/22 00:38:08;;;;;;;10.80;6.90;;;;;;;19.54;91.07;98079.56;107056;1278;22719;-77
2023/06/22 00:40:36;;;;;;;11.70;7.10;;;;;;;19.58;91.23;98085.52;106505;1278;22571;-77
2023/06/22 00:43:03;;;;;;;14.30;6.70;;;;;;;19.61;92.08;98083.63;106905;1278;25343;-77
2023/06/22 00:45:30;;;;;;;11.40;6.40;;;;;;;19.63;91.74;98087.36;106897;1278;23447;-78
2023/06/22 00:47:58;;;;;;;13.90;7.00;;;;;;;19.67;92.20;98088.59;106555;1278;24384;-78
2023/06/22 00:50:26;;;;;;;14.60;7.70;;;;;;;19.71;91.98;98093.45;107030;1278;22577;-78
2023/06/22 00:52:58;;;;;;;13.50;6.80;;;;;;;19.75;92.53;98102.91;106971;1278;25032;-78
2023/06/22 00:55:26;;;;;;;10.10;6.90;;;;;;;19.77;92.53;98098.45;107044;1278;24327;-78
2023/06/22 00:57:56;;;;;;;11.10;7.10;;;;;;;19.78;92.79;98090.24;106883;1279;24224;-78
2023/06/22 01:00:24;;;;;;;8.60;6.40;;;;;;;19.80;92.59;98087.55;106906;1278;22660;-79
2023/06/22 01:02:54;;;;;;;10.60;6.40;;;;;;;19.79;92.52;98090.58;107135;1278;22647;-79
2023/06/22 01:05:22;;;;;;;14.00;6.60;;;;;;;19.76;92.66;98090.52;107088;1278;25149;-78
2023/06/22 01:08:00;;;;;;;12.00;8.00;;;;;;;19.75;93.19;98091.11;107081;1278;25401;-78
2023/06/22 01:10:34;;;;;;;13.00;6.90;;;;;;;19.69;92.94;98086.21;107000;1278;22526;-78
2023/06/22 01:13:17;;;;;;;13.40;7.20;;;;;;;19.65;92.93;98083.68;106955;1278;23470;-79
2023/06/22 01:15:53;;;;;;;12.00;6.70;;;;;;;19.65;92.88;98080.39;106756;1278;22552;-78
2023/06/22 01:18:27;;;;;;;12.50;7.00;;;;;;;19.66;93.08;98074.34;106820;1278;22582;-78
2023/06/22 01:20:57;;;;;;;12.40;6.90;;;;;;;19.65;92.93;98072.90;106829;1278;25300;-79
2023/06/22 01:23:59;;;;;;;14.90;8.20;;;;;;;19.62;92.79;98074.52;106916;1279;24920;-78
2023/06/22 01:26:35;;;;;;;12.00;6.40;;;;;;;19.62;92.76;98074.38;106841;1278;25403;-78
2023/06/22 01:29:04;;;;;;;14.40;7.20;;;;;;;19.64;92.96;98077.45;107125;1277;25366;-79
2023/06/22 01:31:34;;;;;;;12.70;6.90;;;;;;;19.66;92.79;98080.28;106989;1277;22644;-79
2023/06/22 01:34:05;;;;;;;16.30;7.50;;;;;;;19.68;92.91;98078.39;107107;1278;22618;-79
2023/06/22 01:36:33;;;;;;;14.80;7.60;;;;;;;19.71;93.21;98079.21;107009;1277;22668;-77
2023/06/22 01:39:02;;;;;;;14.10;7.80;;;;;;;19.70;92.56;98081.52;106663;1277;22612;-78
2023/06/22 01:41:34;;;;;;;12.20;7.10;;;;;;;19.67;92.90;98084.54;106883;1277;22538;-78
2023/06/22 01:44:01;;;;;;;11.40;7.40;;;;;;;19.64;92.64;98077.63;106934;1277;22572;-78
2023/06/22 01:46:28;;;;;;;14.80;7.50;;;;;;;19.63;92.68;98079.00;107051;1277;24446;-78
2023/06/22 01:48:55;;;;;;;13.90;7.00;;;;;;;19.61;93.36;98077.86;107197;1278;22550;-78
2023/06/22 01:51:22;;;;;;;14.90;7.40;;;;;;;19.59;93.28;98074.83;106987;1277;24183;-78
2023/06/22 01:53:49;;;;;;;13.40;7.20;;;;;;;19.55;93.16;98077.87;107108;1277;24359;-78
2023/06/22 01:56:19;;;;;;;12.70;7.20;;;;;;;19.52;93.31;98085.30;107139;1277;22532;-79
2023/06/22 01:59:17;;;;;;;13.50;8.00;;;;;;;19.48;93.37;98088.64;107193;1278;25393;-77
2023/06/22 02:01:57;;;;;;;13.50;7.60;;;;;;;19.45;92.98;98087.61;106859;1277;25449;-77
2023/06/22 02:04:31;;;;;;;9.70;7.30;;;;;;;19.43;93.53;98091.56;106808;1277;22543;-77
2023/06/22 02:07:00;;;;;;;14.90;8.30;;;;;;;19.40;93.41;98091.16;106927;1278;22542;-77
2023/06/22 02:09:31;;;;;;;11.80;7.50;;;;;;;19.37;93.44;98087.81;107171;1277;22530;-77
2023/06/22 02:12:00;;;;;;;11.90;6.90;;;;;;;19.31;93.99;98089.08;107162;1278;25322;-78
2023/06/22 02:14:27;;;;;;;12.00;6.20;;;;;;;19.27;94.42;98088.33;107203;1278;22530;-78
2023/06/22 02:16:54;;;;;;;11.20;6.40;;;;;;;19.23;94.07;98082.85;106983;1278;22596;-78
2023/06/22 02:19:24;;;;;;;13.00;6.50;;;;;;;19.20;93.78;98085.36;107059;1278;24261;-78
2023/06/22 02:21:52;;;;;;;13.90;6.00;;;;;;;19.21;93.82;98089.98;107155;1278;22858;-78
2023/06/22 02:24:23;;;;;;;16.00;6.40;;;;;;;19.18;94.10;98087.49;107135;1278;22601;-78
2023/06/22 02:26:49;;;;;;;11.10;6.70;;;;;;;19.15;94.87;98094.27;107109;1277;25271;-79
2023/06/22 02:29:16;;;;;;;10.60;6.00;;;;;;;19.07;94.80;98098.90;107083;1277;25416;-77
2023/06/22 02:31:43;;;;;;;11.60;6.50;;;;;;;19.00;94.58;98105.02;107004;1277;22572;-79
2023/06/22 02:34:10;;;;;;;14.90;6.60;;;;;;;18.96;94.35;98108.37;107256;1277;23383;-78
2023/06/22 02:36:36;;;;;;;11.60;7.30;;;;;;;18.93;94.44;98112.48;107192;1278;22520;-77
2023/06/22 02:39:03;;;;;;;14.00;6.40;;;;;;;18.87;94.90;98113.81;107185;1278;24186;-78
2023/06/22 02:41:30;;;;;;;11.80;6.40;;;;;;;18.85;94.82;98117.82;107189;1278;22555;-77
2023/06/22 02:43:57;;;;;;;13.20;6.40;;;;;;;18.81;95.00;98117.09;106981;1278;22667;-81
2023/06/22 02:46:24;;;;;;;15.10;6.60;;;;;;;18.79;94.77;98115.38;107193;1277;22692;-77
2023/06/22 02:48:51;;;;;;;13.90;6.80;;;;;;;18.78;95.14;98114.41;107273;1277;26520;-77
2023/06/22 02:51:18;;;;;;;11.30;6.50;;;;;;;18.77;94.84;98105.34;107050;1277;25192;-77
2023/06/22 02:53:45;;;;;;;12.30;6.60;;;;;;;18.75;94.63;98110.03;107199;1277;22535;-78
2023/06/22 02:56:12;;;;;;;13.80;6.00;;;;;;;18.73;94.65;98111.91;106951;1277;22563;-78
2023/06/22 02:58:39;;;;;;;11.30;7.10;;;;;;;18.73;94.55;98111.90;106995;1278;25411;-78
2023/06/22 03:01:12;;;;;;;12.20;6.40;;;;;;;18.70;95.27;98117.98;107114;1277;25489;-78
2023/06/22 03:03:40;;;;;;;9.90;6.00;;;;;;;18.68;95.99;98123.46;106970;1277;22542;-77
2023/06/22 03:06:07;;;;;;;13.70;6.80;;;;;;;18.65;95.51;98121.20;107038;1277;24368;-78
2023/06/22 03:08:34;;;;;;;11.20;6.20;;;;;;;18.62;95.63;98125.64;107214;1270;22542;-78
2023/06/22 03:11:01;;;;;;;10.90;6.40;;;;;;;18.57;95.06;98124.58;107281;1277;25456;-77
2023/06/22 03:13:28;;;;;;;12.90;6.10;;;;;;;18.57;95.15;98123.33;107065;1277;24199;-78
2023/06/22 03:15:54;;;;;;;15.20;6.50;;;;;;;18.59;94.98;98117.94;107306;1276;22557;-79
2023/06/22 03:18:22;;;;;;;12.20;5.80;;;;;;;18.62;95.03;98125.15;107197;1256;22603;-78
2023/06/22 03:20:49;;;;;;;11.30;6.10;;;;;;;18.59;95.39;98134.83;107200;1276;24267;-78
2023/06/22 03:23:15;;;;;;;14.00;7.00;;;;;;;18.52;95.73;98145.08;107182;1276;24370;-78
2023/06/22 03:25:44;;;;;;;10.20;6.20;;;;;;;18.46;95.67;98149.66;107085;1276;22552;-78
2023/06/22 03:28:11;;;;;;;12.80;6.60;;;;;;;18.45;96.39;98153.60;107153;1276;22484;-78
2023/06/22 03:30:38;;;;;;;10.10;6.30;;;;;;;18.44;96.35;98154.19;106997;1277;25485;-78
2023/06/22 03:33:04;;;;;;;14.70;6.70;;;;;;;18.47;96.52;98155.23;107024;1276;25383;-78
2023/06/22 03:35:32;;;;;;;17.50;6.60;;;;;;;18.50;97.31;98154.58;107177;1276;22609;-78
2023/06/22 03:37:59;;;;;;;12.70;5.90;;;;;;;18.50;97.35;98160.52;107030;1266;25306;-78
2023/06/22 03:40:25;;;;;;;15.20;6.40;;;;;;;18.50;97.47;98163.26;107047;1277;25253;-79
2023/06/22 03:42:52;;;;;;;13.50;6.20;;;;;;;18.54;97.42;98165.23;107082;1277;23947;-79
2023/06/22 03:45:19;;;;;;;12.30;6.50;;;;;;;18.56;97.85;98163.50;107275;1277;22983;-79
2023/06/22 03:47:46;;;;;;;15.40;6.50;;;;;;;18.57;97.72;98161.14;107214;1276;22528;-79
2023/06/22 03:50:14;;;;;;;15.70;6.70;;;;;;;18.61;97.78;98161.17;107249;1277;25281;-77
2023/06/22 03:52:41;;;;;;;10.90;5.90;;;;;;;18.67;97.66;98158.13;107229;1276;22563;-79
2023/06/22 03:55:08;;;;;;;14.30;6.20;;;;;;;18.72;98.28;98158.73;107207;1276;24211;-78
2023/06/22 03:57:34;;;;;;;11.50;6.30;;;;;;;18.74;98.06;98157.04;107260;1276;22530;-78
2023/06/22 04:00:05;;;;;;;13.60;6.10;;;;;;;18.79;98.22;98162.35;107177;1277;24240;-78
2023/06/22 04:02:38;;;;;;;12.90;6.50;;;;;;;18.83;98.55;98167.29;107263;1276;22539;-78
2023/06/22 04:05:05;;;;;;;17.10;6.70;;;;;;;18.87;98.48;98167.54;107208;1277;22636;-78
2023/06/22 04:07:32;;;;;;;11.50;6.10;;;;;;;18.93;98.74;98172.65;107245;1277;22531;-79
2023/06/22 04:09:59;;;;;;;13.60;7.60;;;;;;;18.97;98.99;98174.72;107254;1277;25431;-78
2023/06/22 04:12:25;;;;;;;16.30;7.10;;;;;;;18.97;99.11;98166.67;107262;1277;22590;-78
2023/06/22 04:14:52;;;;;;;15.30;7.30;;;;;;;19.04;99.17;98168.59;107266;1276;22679;-78
2023/06/22 04:17:19;;;;;;;15.30;8.10;;;;;;;19.08;99.48;98165.97;107300;1277;24659;-78
2023/06/22 04:19:45;;;;;;;16.60;7.60;;;;;;;19.12;99.60;98162.31;107258;1276;22526;-79
2023/06/22 04:22:12;;;;;;;14.90;8.20;;;;;;;19.18;99.10;98155.77;107256;1277;22557;-78
2023/06/22 04:24:39;;;;;;;13.50;8.80;;;;;;;19.28;99.32;98146.90;107277;1277;25363;-78
2023/06/22 04:27:06;;;;;;;15.10;8.80;;;;;;;19.35;99.14;98154.13;107252;1277;24368;-79
2023/06/22 04:29:32;;;;;;;20.00;10.20;;;;;;;19.42;99.11;98157.91;107024;1277;22600;-78
2023/06/22 04:32:02;;;;;;;15.40;9.50;;;;;;;19.53;98.75;98161.05;107274;1276;22946;-79
2023/06/22 04:34:29;;;;;;;20.50;10.70;;;;;;;19.65;98.56;98163.80;107306;1276;25271;-80
2023/06/22 04:36:56;;;;;;;14.90;10.40;;;;;;;19.70;98.35;98165.99;107325;1277;22554;-78
2023/06/22 04:39:23;;;;;;;23.80;12.00;;;;;;;19.71;97.87;98166.16;107363;1276;25226;-78
2023/06/22 04:41:51;;;;;;;16.50;11.70;;;;;;;19.73;97.91;98163.79;107310;1277;22581;-77
2023/06/22 04:44:24;;;;;;;17.70;12.50;;;;;;;19.79;97.84;98164.71;107089;1276;232976;-78
2023/06/22 04:47:08;;;;;;;21.90;12.80;;;;;;;19.85;97.89;98165.24;107206;1277;22579;-79
2023/06/22 04:49:40;;;;;;;20.60;13.20;;;;;;;19.94;97.88;98165.72;107048;1277;22526;-79
2023/06/22 04:52:08;;;;;;;19.30;14.50;;;;;;;20.01;97.84;98165.10;106953;1277;23066;-78
2023/06/22 04:54:37;;;;;;;22.10;15.40;;;;;;;20.07;97.59;98167.67;107328;1269;24212;-79
2023/06/22 04:57:09;;;;;;;26.70;16.00;;;;;;;20.14;97.47;98166.17;107368;1277;22546;-79
2023/06/22 04:59:38;;;;;;;20.90;15.20;;;;;;;20.23;97.35;98163.19;107281;1277;22531;-81
2023/06/22 05:02:05;;;;;;;21.00;15.70;;;;;;;20.34;97.22;98160.14;107294;1277;23022;-78
2023/06/22 05:04:32;;;;;;;20.40;15.90;;;;;;;20.39;96.90;98161.66;106864;1277;24405;-79
2023/06/22 05:07:00;;;;;;;25.40;15.80;;;;;;;20.45;96.92;98164.77;106870;1276;25318;-81
2023/06/22 05:09:27;;;;;;;27.70;15.20;;;;;;;20.55;97.05;98164.70;106942;1277;23245;-78
2023/06/22 05:11:54;;;;;;;25.40;15.20;;;;;;;20.65;96.94;98172.36;106842;1277;26535;-77
2023/06/22 05:14:20;;;;;;;18.20;13.90;;;;;;;20.75;97.04;98169.13;106821;1277;22534;-77
2023/06/22 05:16:48;;;;;;;23.00;14.10;;;;;;;20.85;96.71;98176.92;106853;1277;22627;-77
2023/06/22 05:19:15;;;;;;;23.60;15.50;;;;;;;20.94;96.57;98178.98;107228;1276;25636;-78
2023/06/22 05:21:42;;;;;;;20.00;15.50;;;;;;;20.98;96.58;98175.77;107063;1274;28301;-78
2023/06/22 05:24:11;;;;;;;22.40;14.50;;;;;;;21.06;96.25;98178.59;106799;1276;25621;-77
2023/06/22 05:26:37;;;;;;;18.20;13.70;;;;;;;21.18;96.45;98178.05;107182;1273;24413;-78
2023/06/22 05:29:04;;;;;;;20.30;16.80;;;;;;;21.30;96.00;98189.41;106856;1276;25207;-81
2023/06/22 05:31:31;;;;;;;20.20;16.20;;;;;;;21.35;95.60;98196.64;107219;1276;23895;-81
2023/06/22 05:33:59;;;;;;;23.20;17.10;;;;;;;21.40;95.49;98205.43;107372;1276;24255;-81
2023/06/22 05:36:26;;;;;;;20.60;17.40;;;;;;;21.42;95.36;98203.05;107266;1276;22954;-81
2023/06/22 05:38:53;;;;;;;19.80;15.90;;;;;;;21.52;95.47;98204.95;107132;1276;24392;-80
2023/06/22 05:41:20;;;;;;;22.60;16.90;;;;;;;21.63;94.10;98205.55;106968;1277;22555;-82
2023/06/22 05:43:46;;;;;;;20.80;15.70;;;;;;;21.67;94.20;98209.07;107713;1276;25366;-81
2023/06/22 05:46:13;;;;;;;19.40;17.00;;;;;;;21.71;93.82;98215.88;107443;1276;24356;-79
2023/06/22 05:48:40;;;;;;;23.40;17.80;;;;;;;21.77;93.60;98211.36;107412;1276;24241;-79
2023/06/22 05:51:07;;;;;;;21.80;17.90;;;;;;;21.77;93.19;98212.52;107445;1276;22538;-81
2023/06/22 05:53:34;;;;;;;22.60;17.80;;;;;;;21.79;93.30;98209.34;107350;1276;22534;-79
2023/06/22 05:56:00;;;;;;;24.90;16.90;;;;;;;21.87;93.50;98208.00;107129;1256;24252;-80
2023/06/22 05:58:27;;;;;;;20.40;17.30;;;;;;;22.08;93.32;98213.76;106937;1276;24378;-78
2023/06/22 06:00:54;;;;;;;24.20;17.70;;;;;;;22.19;92.58;98212.86;107341;1276;26516;-82
2023/06/22 06:03:20;;;;;;;21.60;18.90;;;;;;;22.34;92.45;98214.75;107250;1276;22641;-83
2023/06/22 06:05:47;;;;;;;18.00;15.70;;;;;;;22.37;91.98;98211.90;107267;1276;22526;-87
2023/06/22 06:08:14;;;;;;;22.60;18.50;;;;;;;22.53;91.67;98215.11;107035;1276;22543;-85
2023/06/22 06:10:41;;;;;;;21.00;18.80;;;;;;;22.59;91.43;98219.13;107305;1276;22609;-83
2023/06/22 06:13:07;;;;;;;25.80;21.60;;;;;;;22.67;91.34;98217.36;106866;1276;25406;-79
2023/06/22 06:15:34;;;;;;;25.20;22.70;;;;;;;22.66;90.04;98224.17;106848;1276;25353;-80
2023/06/22 06:18:04;;;;;;;24.20;21.60;;;;;;;22.66;89.88;98229.89;106901;1276;22655;-79
2023/06/22 06:20:32;;;;;;;24.40;19.80;;;;;;;22.72;89.90;98234.91;106890;1276;22551;-81
2023/06/22 06:22:59;;;;;;;23.90;21.50;;;;;;;22.78;89.86;98229.52;106674;1276;25400;-82
2023/06/22 06:25:26;;;;;;;24.00;21.40;;;;;;;22.88;89.30;98223.13;106921;1276;22542;-80
2023/06/22 06:27:54;;;;;;;22.80;20.30;;;;;;;23.00;89.20;98221.36;106868;1276;22601;-80
2023/06/22 06:30:22;;;;;;;24.90;22.20;;;;;;;23.02;87.85;98220.75;106912;1276;25421;-81
2023/06/22 06:32:51;;;;;;;22.00;19.70;;;;;;;23.08;88.70;98217.14;106879;1276;24212;-79
2023/06/22 06:35:18;;;;;;;23.40;18.00;;;;;;;23.27;88.93;98219.88;106856;1276;24339;-80
2023/06/22 06:37:47;;;;;;;19.00;17.00;;;;;;;23.46;89.06;98220.08;106693;1276;23608;-80
2023/06/22 06:40:15;;;;;;;19.50;17.30;;;;;;;23.72;89.11;98217.06;106951;1276;24277;-80
2023/06/22 06:42:47;;;;;;;22.40;19.80;;;;;;;23.97;88.58;98220.23;106799;1276;25328;-80
2023/06/22 06:45:22;;;;;;;24.30;21.70;;;;;;;24.13;85.80;98222.55;106978;1276;25030;-79
2023/06/22 06:47:49;;;;;;;24.50;22.00;;;;;;;24.16;85.17;98220.93;106923;1276;23937;-82
2023/06/22 06:50:18;;;;;;;22.60;20.10;;;;;;;24.26;85.96;98220.45;106631;1276;22526;-81
2023/06/22 06:52:45;;;;;;;23.30;20.90;;;;;;;24.35;85.73;98221.31;107232;1276;22562;-81
2023/06/22 06:55:12;;;;;;;23.30;20.90;;;;;;;24.37;84.90;98220.61;106998;1276;22540;-81
2023/06/22 06:57:40;;;;;;;22.00;19.80;;;;;;;24.42;84.62;98223.43;106984;1276;22999;-80
2023/06/22 07:00:11;;;;;;;21.70;19.40;;;;;;;24.52;82.94;98222.48;106841;1276;22538;-77
2023/06/22 07:02:40;;;;;;;22.40;20.30;;;;;;;24.62;82.75;98222.86;106947;1276;24099;-77
2023/06/22 07:05:07;;;;;;;22.00;20.10;;;;;;;24.74;82.37;98216.56;106875;1276;25356;-77
2023/06/22 07:07:34;;;;;;;23.90;21.60;;;;;;;24.79;80.66;98208.01;107315;1276;22558;-77
2023/06/22 07:10:07;;;;;;;21.40;19.40;;;;;;;24.81;79.52;98211.16;107330;1276;22585;-77
2023/06/22 07:12:34;;;;;;;20.80;18.80;;;;;;;24.83;78.91;98214.80;107273;1276;22576;-77
2023/06/22 07:15:07;;;;;;;22.00;19.60;;;;;;;24.86;80.58;98211.74;107238;1276;22538;-77
2023/06/22 07:17:35;;;;;;;23.20;21.00;;;;;;;25.07;81.03;98211.36;106891;1254;24257;-77
2023/06/22 07:20:07;;;;;;;22.50;20.60;;;;;;;25.24;79.94;98209.73;107273;1276;25386;-77
2023/06/22 07:22:34;;;;;;;24.40;22.00;;;;;;;25.31;77.04;98203.61;107284;1276;23373;-78
2023/06/22 07:25:04;;;;;;;22.00;20.00;;;;;;;25.16;77.44;98197.16;107163;1276;25368;-78
2023/06/22 07:27:35;;;;;;;20.10;18.30;;;;;;;25.12;76.64;98202.88;107359;1259;24234;-78
2023/06/22 07:30:02;;;;;;;20.20;18.50;;;;;;;25.16;77.43;98206.93;107316;1276;22544;-79
2023/06/22 07:32:29;;;;;;;21.50;19.50;;;;;;;25.17;74.57;98212.36;106966;1276;25606;-78
2023/06/22 07:34:56;;;;;;;21.20;19.30;;;;;;;25.14;75.77;98211.18;107259;1277;22605;-79
2023/06/22 07:37:22;;;;;;;21.50;19.60;;;;;;;25.23;74.59;98214.37;107363;1277;24144;-81
2023/06/22 07:39:53;;;;;;;21.70;19.60;;;;;;;25.16;74.23;98219.79;106922;1276;22542;-83
2023/06/22 07:42:20;;;;;;;22.30;20.10;;;;;;;25.08;73.92;98222.08;107263;1276;25285;-79
2023/06/22 07:44:47;;;;;;;22.00;20.10;;;;;;;25.08;74.33;98222.08;106840;1277;22545;-82
2023/06/22 07:47:13;;;;;;;19.80;17.80;;;;;;;25.13;75.13;98221.10;106877;1277;22657;-81
2023/06/22 07:49:40;;;;;;;21.50;18.70;;;;;;;25.27;74.89;98218.72;107528;1277;22777;-84
2023/06/22 07:52:07;;;;;;;19.50;17.70;;;;;;;25.44;75.55;98222.71;106927;1277;25470;-80
2023/06/22 07:54:33;;;;;;;19.20;17.50;;;;;;;25.67;75.43;98230.35;106990;1277;25303;-81
2023/06/22 07:57:00;;;;;;;18.70;17.00;;;;;;;25.78;74.22;98230.91;107339;1276;22575;-83
2023/06/22 07:59:27;;;;;;;20.20;18.50;;;;;;;25.84;74.18;98232.61;107059;1277;23020;-79
2023/06/22 08:01:55;;;;;;;18.40;16.70;;;;;;;25.89;72.78;98237.03;107497;1276;22534;-78
2023/06/22 08:04:22;;;;;;;19.60;17.90;;;;;;;25.91;72.57;98239.16;107103;1276;25393;-78
2023/06/22 08:06:49;;;;;;;19.70;17.90;;;;;;;25.85;71.12;98236.63;107365;1277;24253;-79
2023/06/22 08:09:15;;;;;;;19.40;17.80;;;;;;;25.95;72.15;98231.52;107380;1276;22611;-77
2023/06/22 08:11:42;;;;;;;20.10;18.30;;;;;;;26.13;70.34;98233.58;106960;1277;25399;-78
2023/06/22 08:14:09;;;;;;;19.80;17.80;;;;;;;26.34;71.39;98242.58;107292;1276;22639;-79
2023/06/22 08:16:36;;;;;;;18.40;16.30;;;;;;;26.51;71.85;98236.66;106907;1277;22636;-77
2023/06/22 08:19:02;;;;;;;17.60;16.10;;;;;;;26.62;70.78;98239.81;107340;1277;24284;-79
2023/06/22 08:21:29;;;;;;;16.50;15.00;;;;;;;26.69;69.60;98243.98;107273;1276;25638;-76
2023/06/22 08:23:56;;;;;;;15.60;14.30;;;;;;;26.65;70.25;98247.86;106896;1277;23953;-76
2023/06/22 08:26:23;;;;;;;17.80;16.20;;;;;;;26.67;70.47;98243.19;106872;1277;25271;-77
2023/06/22 08:28:50;;;;;;;17.70;16.20;;;;;;;26.67;68.95;98246.45;106890;1276;22537;-77
2023/06/22 08:31:17;;;;;;;19.30;17.00;;;;;;;26.60;69.20;98248.34;106964;1276;24170;-77
2023/06/22 08:33:45;;;;;;;16.30;14.70;;;;;;;26.66;69.35;98252.83;106878;1277;22638;-81
2023/06/22 08:36:16;;;;;;;16.30;15.00;;;;;;;26.89;67.49;98249.86;107314;1276;24177;-81
2023/06/22 08:38:42;;;;;;;16.90;15.40;;;;;;;27.09;68.07;98251.38;107928;1266;25650;-81
2023/06/22 08:41:09;;;;;;;15.60;14.20;;;;;;;27.31;68.69;98248.01;107420;1277;25265;-83
2023/06/22 08:43:36;;;;;;;16.50;14.80;;;;;;;27.57;67.67;98247.09;107157;1263;24550;-83
2023/06/22 08:46:03;;;;;;;14.30;13.00;;;;;;;27.62;65.24;98248.56;107374;1277;22545;-84
2023/06/22 08:48:29;;;;;;;12.40;11.30;;;;;;;27.60;62.44;98247.54;107099;1276;22558;-84
2023/06/22 08:50:56;;;;;;;13.80;12.40;;;;;;;27.49;63.58;98245.63;107288;1277;25463;-82
2023/06/22 08:53:23;;;;;;;13.10;11.90;;;;;;;27.61;63.32;98245.33;107370;1277;22545;-83
2023/06/22 08:55:50;;;;;;;16.80;15.10;;;;;;;27.78;62.68;98234.95;107272;1277;22610;-83
2023/06/22 08:58:18;;;;;;;12.00;10.80;;;;;;;28.05;63.68;98239.77;107295;1277;22485;-83
2023/06/22 09:00:45;;;;;;;14.00;12.50;;;;;;;28.40;63.24;98240.52;107325;1277;22556;-82
2023/06/22 09:03:11;;;;;;;30.90;17.40;;;;;;;28.57;60.58;98243.09;107322;1273;22582;-83
2023/06/22 09:05:39;;;;;;;15.60;12.20;;;;;;;28.42;58.67;98248.44;107395;1277;22580;-81
2023/06/22 09:08:05;;;;;;;12.70;11.60;;;;;;;28.11;59.42;98251.36;107340;1269;24374;-81
2023/06/22 09:10:32;;;;;;;13.40;12.30;;;;;;;27.90;59.83;98243.52;107429;1277;23030;-81
2023/06/22 09:12:59;;;;;;;14.50;11.50;;;;;;;27.86;59.63;98241.65;107497;1274;24128;-81
2023/06/22 09:15:26;;;;;;;12.40;11.10;;;;;;;27.77;58.88;98248.65;106913;1277;23979;-81
2023/06/22 09:17:54;;;;;;;12.50;11.20;;;;;;;27.65;59.58;98250.84;107327;1276;24209;-81
2023/06/22 09:20:21;;;;;;;10.70;9.70;;;;;;;27.57;58.30;98254.92;107400;1275;24391;-81
2023/06/22 09:22:48;;;;;;;8.90;8.00;;;;;;;27.40;58.44;98247.02;107312;1277;22647;-80
2023/06/22 09:25:14;;;;;;;9.70;8.70;;;;;;;27.14;57.87;98251.13;107449;1269;22596;-81
2023/06/22 09:27:41;;;;;;;8.80;8.00;;;;;;;27.11;58.11;98249.56;106959;1276;22532;-80
2023/06/22 09:30:08;;;;;;;8.30;7.50;;;;;;;27.23;57.47;98250.33;107392;1276;25694;-80
2023/06/22 09:32:35;;;;;;;8.10;7.40;;;;;;;27.34;56.75;98245.46;107436;1266;22605;-80
2023/06/22 09:35:06;;;;;;;10.40;8.40;;;;;;;27.48;56.14;98240.73;107307;1277;22528;-79
2023/06/22 09:37:33;;;;;;;9.20;7.40;;;;;;;27.70;57.35;98236.58;107335;1276;25250;-81
2023/06/22 09:39:59;;;;;;;9.20;7.50;;;;;;;27.79;57.14;98233.92;107398;1277;22659;-81
2023/06/22 09:42:26;;;;;;;8.60;7.10;;;;;;;27.91;55.00;98236.40;107548;1277;25613;-80
2023/06/22 09:44:53;;;;;;;8.80;7.90;;;;;;;27.89;54.28;98235.30;107570;1277;22608;-79
2023/06/22 09:47:19;;;;;;;8.60;7.80;;;;;;;27.83;54.95;98231.54;107410;1277;22999;-81
2023/06/22 09:49:46;;;;;;;7.60;6.60;;;;;;;27.91;54.82;98231.09;107313;1277;25352;-81
2023/06/22 09:52:15;;;;;;;8.40;7.40;;;;;;;27.98;54.17;98231.52;107379;1277;22615;-80
2023/06/22 09:54:42;;;;;;;7.40;6.70;;;;;;;28.04;53.53;98232.66;107439;1277;24063;-80
2023/06/22 09:57:09;;;;;;;9.30;6.90;;;;;;;28.07;53.29;98235.17;107093;1277;24721;-79
2023/06/22 09:59:35;;;;;;;7.70;6.10;;;;;;;28.19;52.81;98235.39;107353;1276;22569;-79
2023/06/22 10:02:02;;;;;;;6.90;6.20;;;;;;;28.32;52.57;98227.84;107369;1277;25345;-80
2023/06/22 10:04:29;;;;;;;7.10;6.50;;;;;;;28.36;50.38;98226.30;107407;1276;22559;-78
2023/06/22 10:06:56;;;;;;;7.30;6.60;;;;;;;28.30;50.78;98232.36;106983;1276;25351;-78
2023/06/22 10:09:23;;;;;;;7.50;6.70;;;;;;;28.13;51.68;98227.84;107294;1276;22538;-78
2023/06/22 10:11:49;;;;;;;6.90;6.10;;;;;;;28.07;52.40;98223.92;106930;1276;22635;-79
2023/06/22 10:14:16;;;;;;;6.80;6.10;;;;;;;28.30;53.04;98214.64;106935;1276;22939;-79
2023/06/22 10:16:44;;;;;;;7.90;6.50;;;;;;;28.61;52.35;98208.19;107334;1276;22535;-79
2023/06/22 10:19:11;;;;;;;8.20;6.30;;;;;;;28.97;52.68;98204.95;107295;1276;22627;-79
2023/06/22 10:21:38;;;;;;;6.70;6.00;;;;;;;29.31;50.69;98211.04;107337;1263;22532;-79
2023/06/22 10:24:08;;;;;;;7.40;6.10;;;;;;;29.34;46.82;98210.69;107373;1277;22687;-79
2023/06/22 10:26:36;;;;;;;8.60;5.80;;;;;;;29.23;48.10;98210.28;107401;1276;22574;-79
2023/06/22 10:29:03;;;;;;;7.20;5.90;;;;;;;29.18;46.84;98205.65;106931;1276;24201;-78
2023/06/22 10:31:42;;;;;;;8.50;6.00;;;;;;;29.03;46.34;98206.79;106912;1276;24541;-79
2023/06/22 10:34:09;;;;;;;7.80;6.70;;;;;;;29.00;45.79;98211.17;107219;1276;22530;-80
2023/06/22 10:36:36;;;;;;;7.00;6.20;;;;;;;28.98;47.28;98208.90;107434;1276;22574;-78
2023/06/22 10:39:03;;;;;;;7.00;6.30;;;;;;;29.28;47.68;98206.02;106993;1276;22576;-78
2023/06/22 10:41:30;;;;;;;8.90;6.40;;;;;;;29.57;47.38;98203.89;107495;1276;22544;-79
2023/06/22 10:43:57;;;;;;;7.20;6.20;;;;;;;29.80;46.71;98198.00;107062;1276;26707;-79
2023/06/22 10:46:25;;;;;;;7.50;5.90;;;;;;;30.01;46.48;98190.93;107473;1276;25332;-79
2023/06/22 10:48:54;;;;;;;8.00;6.20;;;;;;;30.29;47.26;98192.08;107429;1269;22578;-78
2023/06/22 10:51:21;;;;;;;6.80;6.10;;;;;;;30.49;45.64;98190.75;107206;1276;23464;-79
2023/06/22 10:53:48;;;;;;;9.00;5.80;;;;;;;30.52;44.29;98186.34;107465;1276;23305;-77
2023/06/22 10:56:14;;;;;;;7.10;5.90;;;;;;;30.62;45.68;98183.55;107420;1276;22531;-78
2023/06/22 10:58:41;;;;;;;7.10;6.30;;;;;;;30.94;45.82;98180.39;107432;1273;22544;-80
2023/06/22 11:01:08;;;;;;;5.90;5.10;;;;;;;31.19;43.08;98172.06;107086;1278;22594;-78
2023/06/22 11:03:43;;;;;;;7.20;5.20;;;;;;;31.18;41.46;98171.70;107617;1276;23327;-79
2023/06/22 11:06:09;;;;;;;9.10;5.80;;;;;;;31.00;43.48;98175.51;107482;1266;22587;-79
2023/06/22 11:08:36;;;;;;;6.80;5.50;;;;;;;30.91;44.27;98174.73;107386;1269;24347;-79
2023/06/22 11:11:03;;;;;;;6.20;5.20;;;;;;;31.00;44.32;98169.38;107330;1276;22538;-79
2023/06/22 11:13:30;;;;;;;7.00;5.80;;;;;;;31.15;40.88;98171.14;107420;1276;22776;-88
2023/06/22 11:15:56;;;;;;;8.10;7.10;;;;;;;30.92;40.94;98173.92;107129;1276;23685;-81
2023/06/22 11:18:23;;;;;;;7.10;5.80;;;;;;;30.81;41.27;98174.93;107484;1276;24397;-82